Time;durP1;ratioP1;P1;durP2;ratioP2;P2;SDS_P1;SDS_P2;PMS_P1;PMS_P2;Temp;Humidity;BMP_temperature;BMP_pressure;BME280_temperature;BME280_humidity;BME280_pressure;Samples;Min_cycle;Max_cycle;Signal;HPM_P1;HPM_P2
2023/08/22 00:00:00;;;;;;;;;;;;;;;27.32;50.77;99631.47;344857;28;1127;-76
2023/08/22 00:00:11;;;;;;;;;;;;;;;27.33;50.37;99633.13;346171;28;1319;-75
2023/08/22 00:00:22;;;;;;;;;;;;;;;27.33;50.59;99625.06;346204;28;978;-75
2023/08/22 00:00:32;;;;;;;;;;;;;;;27.35;50.37;99630.28;346349;28;817;-75
2023/08/22 00:00:42;;;;;;;;;;;;;;;27.35;50.55;99633.81;344940;28;1200;-77
2023/08/22 00:00:53;;;;;;;;;;;;;;;27.35;50.17;99639.19;343584;28;819;-76
2023/08/22 00:01:04;;;;;;;;;;;;;;;27.36;50.56;99640.88;340654;28;1325;-75
2023/08/22 00:01:14;;;;;;;;;;;;;;;27.36;50.18;99635.50;341008;29;824;-75
2023/08/22 00:01:24;;;;;;;;;;;;;;;27.37;50.19;99628.25;341615;28;1216;-75
2023/08/22 00:01:34;;;;;;;;;;;;;;;27.36;50.21;99627.41;339858;29;1498;-76
2023/08/22 00:01:45;;;;;;;;;;;;;;;27.36;50.02;99627.41;339586;29;1433;-76
2023/08/22 00:01:55;;;;;;;;;;;;;;;27.38;50.39;99633.47;334480;29;874;-76
2023/08/22 00:02:06;;;;;;;;;;;;;;;27.38;50.26;99624.56;334722;29;1556;-76
2023/08/22 00:02:16;;;;;;;;;;;;;;;27.39;50.25;99628.94;335439;29;1923;-77
2023/08/22 00:02:27;;;;;;;;;;;;;;;27.39;50.41;99634.31;334331;29;1202;-77
2023/08/22 00:02:37;;;;;;;;;;;;;;;27.39;50.09;99632.47;334389;29;1627;-77
2023/08/22 00:02:47;;;;;;;;;;;;;;;27.39;50.01;99631.63;334657;29;1362;-77
2023/08/22 00:02:58;;;;;;;;;;;;;;;27.37;50.39;99629.09;335673;29;736;-77
2023/08/22 00:03:08;;;;;;;;;;;;;;;27.38;50.35;99635.31;337078;29;1208;-77
2023/08/22 00:03:18;;;;;;;;;;;;;;;27.37;49.85;99629.09;337375;29;1543;-77
2023/08/22 00:03:29;;;;;;;;;;;;;;;27.36;50.17;99630.13;337103;29;713;-77
2023/08/22 00:03:39;;;;;;;;;;;;;;;27.37;50.28;99629.09;334275;29;1936;-77
2023/08/22 00:03:49;;;;;;;;;;;;;;;27.37;49.91;99634.47;333479;29;1801;-77
2023/08/22 00:03:59;;;;;;;;;;;;;;;27.36;50.28;99632.81;330515;29;1566;-77
2023/08/22 00:04:10;;;;;;;;;;;;;;;27.35;50.08;99630.28;330139;29;2079;-77
2023/08/22 00:04:20;;;;;;;;;;;;;;;27.36;50.03;99635.50;330360;29;2209;-76
2023/08/22 00:04:30;;;;;;;;;;;;;;;27.36;50.02;99629.28;330539;29;1673;-76
2023/08/22 00:04:40;;;;;;;;;;;;;;;27.36;50.18;99632.81;329433;30;803;-76
2023/08/22 00:04:51;;;;;;;;;;;;;;;27.36;50.26;99632.81;328714;30;1300;-76
2023/08/22 00:05:01;;;;;;;;;;;;;;;27.36;50.21;99630.13;328873;30;1732;-76
2023/08/22 00:05:12;;;;;;;;;;;;;;;27.36;50.43;99627.41;326862;30;1476;-76
2023/08/22 00:05:22;;;;;;;;;;;;;;;27.36;50.01;99627.41;326069;30;2327;-76
2023/08/22 00:05:32;;;;;;;;;;;;;;;27.35;50.44;99630.28;325120;29;3244;-76
2023/08/22 00:05:42;;;;;;;;;;;;;;;27.34;50.39;99634.81;330000;29;4626;-77
2023/08/22 00:05:53;;;;;;;;;;;;;;;27.33;50.29;99627.75;328815;29;4677;-77
2023/08/22 00:06:03;;;;;;;;;;;;;;;27.34;50.08;99631.28;326182;30;4764;-77
2023/08/22 00:06:13;;;;;;;;;;;;;;;27.32;50.38;99631.47;326972;30;982;-77
2023/08/22 00:06:24;;;;;;;;;;;;;;;27.32;50.19;99631.47;330454;29;2683;-77
2023/08/22 00:06:34;;;;;;;;;;;;;;;27.33;50.30;99630.44;330864;29;2838;-77
2023/08/22 00:06:44;;;;;;;;;;;;;;;27.32;50.45;99631.47;330623;29;1294;-77
2023/08/22 00:06:54;;;;;;;;;;;;;;;27.31;49.98;99632.47;326827;30;1796;-77
2023/08/22 00:07:05;;;;;;;;;;;;;;;27.31;50.16;99629.78;325879;30;1413;-77
2023/08/22 00:07:15;;;;;;;;;;;;;;;27.29;50.05;99631.81;326456;30;2011;-77
2023/08/22 00:07:25;;;;;;;;;;;;;;;27.30;49.98;99629.94;328128;30;1196;-77
2023/08/22 00:07:35;;;;;;;;;;;;;;;27.28;50.06;99627.47;328803;29;2430;-77
2023/08/22 00:07:45;;;;;;;;;;;;;;;27.27;50.23;99631.16;326339;30;2705;-77
2023/08/22 00:07:56;;;;;;;;;;;;;;;27.28;50.10;99634.69;325780;30;1342;-77
2023/08/22 00:08:06;;;;;;;;;;;;;;;27.28;50.27;99637.38;323428;30;3297;-77
2023/08/22 00:08:16;;;;;;;;;;;;;;;27.27;50.16;99631.16;321334;30;3401;-77
2023/08/22 00:08:26;;;;;;;;;;;;;;;27.27;50.06;99628.47;322221;30;888;-77
2023/08/22 00:08:37;;;;;;;;;;;;;;;27.27;50.07;99628.47;323376;30;3625;-77
2023/08/22 00:08:47;;;;;;;;;;;;;;;27.30;50.46;99630.78;324501;30;3412;-77
2023/08/22 00:08:57;;;;;;;;;;;;;;;27.30;50.40;99632.63;324580;30;1251;-77
2023/08/22 00:09:08;;;;;;;;;;;;;;;27.30;50.48;99633.47;321606;30;2988;-77
2023/08/22 00:09:18;;;;;;;;;;;;;;;27.29;50.15;99639.88;319766;30;2138;-77
2023/08/22 00:09:29;;;;;;;;;;;;;;;27.30;50.23;99636.16;318721;31;1059;-77
2023/08/22 00:09:39;;;;;;;;;;;;;;;27.28;49.92;99630.16;315830;31;2713;-77
2023/08/22 00:09:49;;;;;;;;;;;;;;;27.28;49.76;99630.16;316142;31;3499;-77
2023/08/22 00:09:59;;;;;;;;;;;;;;;27.27;50.26;99628.47;316196;31;1423;-77
2023/08/22 00:10:10;;;;;;;;;;;;;;;27.28;49.77;99629.31;316639;31;3849;-77
2023/08/22 00:10:20;;;;;;;;;;;;;;;27.28;49.72;99634.69;314502;31;4282;-77
2023/08/22 00:10:33;;;;;;;;;;;;;;;27.27;49.90;99633.84;312547;31;4488;-77
2023/08/22 00:10:45;;;;;;;;;;;;;;;27.27;50.10;99633.84;314127;31;877;-77
2023/08/22 00:10:55;;;;;;;;;;;;;;;27.29;50.06;99631.81;308463;31;5632;-77
2023/08/22 00:11:05;;;;;;;;;;;;;;;27.28;49.65;99632.00;307912;31;4390;-77
2023/08/22 00:11:15;;;;;;;;;;;;;;;27.28;49.99;99634.69;308071;31;2753;-77
2023/08/22 00:11:27;;;;;;;;;;;;;;;27.27;49.77;99633.00;312004;31;1317;-76
2023/08/22 00:11:37;;;;;;;;;;;;;;;27.28;49.60;99632.00;307169;31;2951;-76
2023/08/22 00:11:47;;;;;;;;;;;;;;;27.27;49.76;99633.84;304360;31;3966;-76
2023/08/22 00:11:57;;;;;;;;;;;;;;;27.28;49.93;99635.53;307481;32;891;-77
2023/08/22 00:12:08;;;;;;;;;;;;;;;27.27;49.70;99633.00;306105;31;5482;-77
2023/08/22 00:12:18;;;;;;;;;;;;;;;27.26;50.08;99634.84;306735;32;5336;-77
2023/08/22 00:12:29;;;;;;;;;;;;;;;27.27;49.61;99633.00;306391;32;1593;-77
2023/08/22 00:12:39;;;;;;;;;;;;;;;27.25;49.84;99630.47;304553;32;5991;-77
2023/08/22 00:12:49;;;;;;;;;;;;;;;27.26;50.01;99632.16;303518;32;6251;-77
2023/08/22 00:12:59;;;;;;;;;;;;;;;27.25;50.17;99630.47;302174;32;1300;-77
2023/08/22 00:13:10;;;;;;;;;;;;;;;27.24;49.95;99634.19;301121;32;6341;-76
2023/08/22 00:13:20;;;;;;;;;;;;;;;27.24;49.78;99627.97;302308;32;6105;-76
2023/08/22 00:13:31;;;;;;;;;;;;;;;27.23;49.95;99635.19;303230;32;4114;-76
2023/08/22 00:13:41;;;;;;;;;;;;;;;27.21;49.76;99631.81;304341;32;1034;-76
2023/08/22 00:13:51;;;;;;;;;;;;;;;27.21;50.05;99631.81;303017;32;4566;-76
2023/08/22 00:14:02;;;;;;;;;;;;;;;27.22;50.22;99630.81;301264;32;5902;-76
2023/08/22 00:14:12;;;;;;;;;;;;;;;27.21;50.07;99629.13;300261;32;1492;-76
2023/08/22 00:14:22;;;;;;;;;;;;;;;27.20;49.84;99632.84;299747;32;6701;-76
2023/08/22 00:14:32;;;;;;;;;;;;;;;27.20;49.97;99632.84;297678;33;7270;-77
2023/08/22 00:14:43;;;;;;;;;;;;;;;27.21;50.32;99637.19;295627;33;2797;-77
2023/08/22 00:14:53;;;;;;;;;;;;;;;27.20;49.93;99632.00;291478;33;8651;-77
2023/08/22 00:15:08;;;;;;;;;;;;;;;27.19;50.40;99636.53;292640;33;8886;-77
2023/08/22 00:15:18;;;;;;;;;;;;;;;27.18;50.26;99634.84;292724;33;8495;-77
2023/08/22 00:15:29;;;;;;;;;;;;;;;27.18;50.18;99634.84;295272;33;862;-77
2023/08/22 00:15:39;;;;;;;;;;;;;;;27.19;50.42;99633.00;290771;33;9156;-77
2023/08/22 00:15:50;;;;;;;;;;;;;;;27.17;50.08;99633.16;289998;33;5785;-77
2023/08/22 00:16:00;;;;;;;;;;;;;;;27.15;50.27;99636.03;288750;34;7001;-76
2023/08/22 00:16:10;;;;;;;;;;;;;;;27.16;50.02;99631.50;285545;34;1093;-76
2023/08/22 00:18:08;;;;;;;;;;;;;;;27.09;50.42;99636.69;2498782;27;20667;-76
2023/08/22 00:18:18;;;;;;;;;;;;;;;27.07;50.22;99632.50;354627;27;1265;-76
2023/08/22 00:18:28;;;;;;;;;;;;;;;27.06;50.29;99633.50;353427;27;1924;-76
2023/08/22 00:18:39;;;;;;;;;;;;;;;27.06;50.60;99646.94;353243;28;1317;-76
2023/08/22 00:18:49;;;;;;;;;;;;;;;27.01;50.55;99633.16;353351;28;917;-76
2023/08/22 00:18:59;;;;;;;;;;;;;;;26.99;50.42;99635.19;353034;28;876;-76
2023/08/22 00:19:09;;;;;;;;;;;;;;;26.97;50.46;99637.19;351662;28;847;-76
2023/08/22 00:19:19;;;;;;;;;;;;;;;26.96;50.75;99636.34;351905;28;1329;-76
2023/08/22 00:19:30;;;;;;;;;;;;;;;26.92;50.77;99634.13;350275;28;2214;-76
2023/08/22 00:19:40;;;;;;;;;;;;;;;26.92;50.52;99639.50;349126;28;871;-76
2023/08/22 00:19:50;;;;;;;;;;;;;;;26.91;50.69;99637.81;349067;28;1024;-76
2023/08/22 00:20:01;;;;;;;;;;;;;;;26.87;50.58;99640.00;347530;28;863;-76
2023/08/22 00:20:12;;;;;;;;;;;;;;;26.86;50.67;99638.31;348518;28;1190;-76
2023/08/22 00:20:23;;;;;;;;;;;;;;;26.86;50.69;99641.00;350311;28;1362;-76
2023/08/22 00:20:34;;;;;;;;;;;;;;;26.83;50.72;99636.84;348967;28;1431;-76
2023/08/22 00:20:45;;;;;;;;;;;;;;;26.83;50.82;99636.84;349057;28;1183;-76
2023/08/22 00:20:55;;;;;;;;;;;;;;;26.84;50.57;99638.50;350331;28;951;-76
2023/08/22 00:21:05;;;;;;;;;;;;;;;26.84;50.99;99637.69;349767;28;1764;-76
2023/08/22 00:21:15;;;;;;;;;;;;;;;26.84;50.70;99638.50;349154;28;862;-77
2023/08/22 00:21:26;;;;;;;;;;;;;;;26.86;50.88;99640.19;348962;28;1537;-76
2023/08/22 00:21:36;;;;;;;;;;;;;;;26.87;50.65;99633.78;349061;28;898;-76
2023/08/22 00:21:46;;;;;;;;;;;;;;;26.89;50.55;99639.84;347464;28;1314;-76
2023/08/22 00:21:56;;;;;;;;;;;;;;;26.90;50.29;99641.50;346319;28;1813;-76
2023/08/22 00:22:07;;;;;;;;;;;;;;;26.91;50.71;99638.66;347455;28;1282;-76
2023/08/22 00:22:17;;;;;;;;;;;;;;;26.92;50.50;99640.34;348894;28;1235;-75
2023/08/22 00:22:27;;;;;;;;;;;;;;;26.94;50.66;99637.50;348946;28;1231;-75
2023/08/22 00:22:38;;;;;;;;;;;;;;;26.95;50.46;99640.00;346209;28;1488;-75
2023/08/22 00:22:48;;;;;;;;;;;;;;;26.97;50.51;99642.56;346217;28;1655;-75
2023/08/22 00:22:58;;;;;;;;;;;;;;;26.95;50.59;99633.78;344863;28;1210;-75
2023/08/22 00:23:08;;;;;;;;;;;;;;;26.95;50.82;99631.09;347552;28;1219;-75
2023/08/22 00:23:19;;;;;;;;;;;;;;;26.93;50.72;99638.50;346266;28;1299;-75
2023/08/22 00:23:29;;;;;;;;;;;;;;;26.93;50.83;99636.66;346053;28;1710;-75
2023/08/22 00:23:39;;;;;;;;;;;;;;;26.93;50.65;99630.44;346375;28;1706;-76
2023/08/22 00:23:49;;;;;;;;;;;;;;;26.92;50.72;99636.81;345771;28;1336;-76
2023/08/22 00:23:59;;;;;;;;;;;;;;;26.92;50.75;99634.97;345001;28;1235;-76
2023/08/22 00:24:10;;;;;;;;;;;;;;;26.93;50.56;99642.03;344885;28;840;-76
2023/08/22 00:24:20;;;;;;;;;;;;;;;26.92;50.81;99634.97;346069;28;2538;-76
2023/08/22 00:24:30;;;;;;;;;;;;;;;26.91;50.46;99637.81;346040;28;4432;-76
2023/08/22 00:24:41;;;;;;;;;;;;;;;26.92;50.75;99634.97;347739;28;5009;-76
2023/08/22 00:24:51;;;;;;;;;;;;;;;26.92;50.44;99634.13;344249;28;6890;-76
2023/08/22 00:25:02;;;;;;;;;;;;;;;26.92;50.80;99642.19;344139;28;5042;-76
2023/08/22 00:25:12;;;;;;;;;;;;;;;26.92;50.62;99634.13;348661;28;1798;-76
2023/08/22 00:25:22;;;;;;;;;;;;;;;26.92;50.48;99631.44;347576;28;4918;-75
2023/08/22 00:25:32;;;;;;;;;;;;;;;26.93;50.51;99635.81;347680;28;849;-75
2023/08/22 00:25:42;;;;;;;;;;;;;;;26.94;50.49;99637.50;345029;28;1026;-75
2023/08/22 00:25:54;;;;;;;;;;;;;;;26.94;50.49;99637.50;342249;28;872;-75
2023/08/22 00:26:04;;;;;;;;;;;;;;;26.95;50.45;99639.16;343460;28;1335;-75
2023/08/22 00:26:15;;;;;;;;;;;;;;;26.93;50.38;99636.66;341647;28;1369;-75
2023/08/22 00:26:25;;;;;;;;;;;;;;;26.94;50.41;99637.50;343581;28;904;-76
2023/08/22 00:26:35;;;;;;;;;;;;;;;26.93;50.29;99631.28;344435;28;1345;-75
2023/08/22 00:26:45;;;;;;;;;;;;;;;26.93;50.29;99631.28;340718;28;1555;-75
2023/08/22 00:26:56;;;;;;;;;;;;;;;26.94;50.30;99635.63;340751;29;2353;-75
2023/08/22 00:27:07;;;;;;;;;;;;;;;26.94;50.25;99634.81;340581;29;1316;-75
2023/08/22 00:27:17;;;;;;;;;;;;;;;26.94;50.72;99642.84;340884;29;869;-75
2023/08/22 00:27:27;;;;;;;;;;;;;;;26.93;50.90;99635.81;342083;28;1258;-75
2023/08/22 00:27:37;;;;;;;;;;;;;;;26.91;50.39;99638.66;342247;28;1192;-75
2023/08/22 00:27:48;;;;;;;;;;;;;;;26.91;50.21;99638.66;341888;28;943;-76
2023/08/22 00:27:58;;;;;;;;;;;;;;;26.92;50.56;99637.66;338077;29;1496;-76
2023/08/22 00:28:08;;;;;;;;;;;;;;;26.92;50.63;99634.13;338846;29;1094;-75
2023/08/22 00:28:18;;;;;;;;;;;;;;;26.90;50.66;99636.97;338726;29;1744;-75
2023/08/22 00:28:29;;;;;;;;;;;;;;;26.90;50.47;99636.97;339083;29;1712;-75
2023/08/22 00:28:39;;;;;;;;;;;;;;;26.90;50.57;99636.97;335254;29;1811;-75
2023/08/22 00:28:49;;;;;;;;;;;;;;;26.90;50.76;99636.13;334344;29;2084;-75
2023/08/22 00:28:59;;;;;;;;;;;;;;;26.88;50.66;99630.94;333206;29;2066;-75
2023/08/22 00:29:09;;;;;;;;;;;;;;;26.88;50.55;99639.00;330465;29;1190;-75
2023/08/22 00:29:20;;;;;;;;;;;;;;;26.87;50.84;99636.47;330639;29;1517;-75
2023/08/22 00:29:30;;;;;;;;;;;;;;;26.88;50.56;99635.47;330460;29;1324;-75
2023/08/22 00:29:40;;;;;;;;;;;;;;;26.87;50.63;99637.31;330672;29;2060;-75
2023/08/22 00:29:50;;;;;;;;;;;;;;;26.88;50.95;99636.31;333867;29;1307;-75
2023/08/22 00:30:01;;;;;;;;;;;;;;;26.87;50.79;99637.31;332114;29;1936;-75
2023/08/22 00:30:11;;;;;;;;;;;;;;;26.89;50.92;99640.66;330595;29;827;-75
2023/08/22 00:30:21;;;;;;;;;;;;;;;26.90;50.79;99636.97;332905;29;2573;-75
2023/08/22 00:30:32;;;;;;;;;;;;;;;26.90;50.69;99636.97;330634;29;2159;-75
2023/08/22 00:30:42;;;;;;;;;;;;;;;26.91;50.91;99637.81;331931;29;1225;-75
2023/08/22 00:30:53;;;;;;;;;;;;;;;26.90;51.04;99641.50;326853;30;1207;-75
2023/08/22 00:31:03;;;;;;;;;;;;;;;26.89;50.87;99635.31;328839;29;2465;-75
2023/08/22 00:31:13;;;;;;;;;;;;;;;26.90;50.51;99630.75;325254;30;2781;-75
2023/08/22 00:31:23;;;;;;;;;;;;;;;26.90;50.79;99636.13;322194;30;1403;-75
2023/08/22 00:31:34;;;;;;;;;;;;;;;26.91;50.90;99637.81;321996;30;1854;-75
2023/08/22 00:31:44;;;;;;;;;;;;;;;26.92;50.68;99636.81;324105;30;1569;-75
2023/08/22 00:31:54;;;;;;;;;;;;;;;26.91;50.62;99640.50;322274;30;793;-75
2023/08/22 00:32:04;;;;;;;;;;;;;;;26.91;50.58;99635.97;325410;30;2224;-75
2023/08/22 00:32:15;;;;;;;;;;;;;;;26.90;51.03;99636.13;327279;29;2681;-75
2023/08/22 00:32:25;;;;;;;;;;;;;;;26.88;50.93;99627.41;328315;30;1179;-75
2023/08/22 00:32:35;;;;;;;;;;;;;;;26.87;50.81;99636.47;328273;29;3034;-75
2023/08/22 00:32:45;;;;;;;;;;;;;;;26.86;50.86;99634.81;324240;30;2948;-75
2023/08/22 00:32:56;;;;;;;;;;;;;;;26.82;51.12;99632.47;323419;30;892;-75
2023/08/22 00:33:06;;;;;;;;;;;;;;;26.82;51.15;99629.78;322151;30;3508;-75
2023/08/22 00:33:16;;;;;;;;;;;;;;;26.82;50.90;99635.16;320578;30;3339;-75
2023/08/22 00:33:26;;;;;;;;;;;;;;;26.83;51.01;99634.16;321051;30;1246;-75
2023/08/22 00:33:36;;;;;;;;;;;;;;;26.82;50.97;99635.16;323081;30;3475;-75
2023/08/22 00:33:47;;;;;;;;;;;;;;;26.81;50.95;99638.00;317875;30;5479;-75
2023/08/22 00:33:58;;;;;;;;;;;;;;;26.80;51.10;99634.47;318501;31;3098;-75
2023/08/22 00:34:09;;;;;;;;;;;;;;;26.81;51.05;99632.63;315704;31;2735;-75
2023/08/22 00:34:19;;;;;;;;;;;;;;;26.81;50.83;99638.84;312689;31;5217;-75
2023/08/22 00:34:29;;;;;;;;;;;;;;;26.81;51.21;99633.47;310616;31;3833;-75
2023/08/22 00:34:39;;;;;;;;;;;;;;;26.80;51.11;99637.16;309552;31;4852;-75
2023/08/22 00:34:50;;;;;;;;;;;;;;;26.79;51.30;99630.13;313902;31;4247;-75
2023/08/22 00:35:00;;;;;;;;;;;;;;;26.78;51.10;99627.59;314979;31;3615;-75
2023/08/22 00:35:10;;;;;;;;;;;;;;;26.75;51.11;99634.13;316274;31;921;-75
2023/08/22 00:35:24;;;;;;;;;;;;;;;26.75;51.45;99634.13;312656;31;4420;-75
2023/08/22 00:35:34;;;;;;;;;;;;;;;26.75;51.51;99634.13;307764;31;4852;-75
2023/08/22 00:35:45;;;;;;;;;;;;;;;26.76;51.25;99630.44;308330;31;4362;-75
2023/08/22 00:35:55;;;;;;;;;;;;;;;26.77;51.15;99631.28;309701;31;927;-75
2023/08/22 00:36:05;;;;;;;;;;;;;;;26.77;51.26;99632.13;306757;31;3018;-75
2023/08/22 00:36:15;;;;;;;;;;;;;;;26.77;51.42;99631.28;308038;31;2962;-75
2023/08/22 00:36:25;;;;;;;;;;;;;;;26.77;51.21;99632.13;309852;31;897;-76
2023/08/22 00:36:36;;;;;;;;;;;;;;;26.79;51.24;99629.28;305778;32;3909;-76
2023/08/22 00:36:46;;;;;;;;;;;;;;;26.78;51.23;99633.81;305424;32;4990;-75
2023/08/22 00:36:56;;;;;;;;;;;;;;;26.79;51.26;99631.97;305531;32;767;-75
2023/08/22 00:37:06;;;;;;;;;;;;;;;26.79;51.23;99632.78;303879;32;6535;-75
2023/08/22 00:37:17;;;;;;;;;;;;;;;26.79;51.26;99630.13;302330;32;5595;-75
2023/08/22 00:37:28;;;;;;;;;;;;;;;26.77;51.52;99632.13;301477;32;6070;-75
2023/08/22 00:37:38;;;;;;;;;;;;;;;26.75;51.29;99634.13;301298;32;1586;-75
2023/08/22 00:37:48;;;;;;;;;;;;;;;26.76;51.27;99629.59;299188;32;6103;-75
2023/08/22 00:37:58;;;;;;;;;;;;;;;26.77;51.57;99631.28;297069;32;6080;-75
2023/08/22 00:38:09;;;;;;;;;;;;;;;26.76;51.39;99633.13;299087;33;1443;-75
2023/08/22 00:38:19;;;;;;;;;;;;;;;26.74;51.42;99627.09;295522;33;4543;-75
2023/08/22 00:38:29;;;;;;;;;;;;;;;26.75;51.71;99634.13;293544;33;5002;-75
2023/08/22 00:38:39;;;;;;;;;;;;;;;26.75;51.42;99633.28;292107;33;1561;-76
2023/08/22 00:38:49;;;;;;;;;;;;;;;26.74;51.51;99627.09;284831;34;6104;-75
2023/08/22 00:39:00;;;;;;;;;;;;;;;26.74;51.67;99626.25;284498;34;6819;-76
2023/08/22 00:39:10;;;;;;;;;;;;;;;26.72;51.80;99629.09;288258;34;1439;-75
2023/08/22 00:39:20;;;;;;;;;;;;;;;26.72;51.57;99630.94;287582;34;8987;-75
2023/08/22 00:39:31;;;;;;;;;;;;;;;26.71;51.60;99626.56;288570;33;8295;-75
2023/08/22 00:39:41;;;;;;;;;;;;;;;26.72;51.51;99628.25;292155;33;1305;-75
2023/08/22 00:39:51;;;;;;;;;;;;;;;26.71;51.74;99627.41;285383;34;8815;-75
2023/08/22 00:40:01;;;;;;;;;;;;;;;26.72;51.67;99633.63;285505;34;9064;-75
2023/08/22 00:40:12;;;;;;;;;;;;;;;26.71;51.69;99629.25;287350;34;876;-75
2023/08/22 00:40:22;;;;;;;;;;;;;;;26.71;51.35;99621.19;283960;34;9138;-75
2023/08/22 00:42:04;;;;;;;;;;;;;;;26.66;51.90;99629.75;2497013;27;19937;-76
2023/08/22 00:42:14;;;;;;;;;;;;;;;26.67;51.56;99631.44;356009;27;1251;-76
2023/08/22 00:42:24;;;;;;;;;;;;;;;26.67;51.91;99631.44;353218;28;1378;-76
2023/08/22 00:42:34;;;;;;;;;;;;;;;26.68;51.96;99633.13;351868;28;867;-76
2023/08/22 00:42:45;;;;;;;;;;;;;;;26.67;51.72;99634.13;348996;28;1345;-76
2023/08/22 00:42:55;;;;;;;;;;;;;;;26.68;52.15;99629.59;349070;28;1002;-76
2023/08/22 00:43:05;;;;;;;;;;;;;;;26.65;51.94;99628.06;350081;28;1602;-76
2023/08/22 00:43:15;;;;;;;;;;;;;;;26.65;52.03;99630.75;350880;28;2650;-76
2023/08/22 00:43:26;;;;;;;;;;;;;;;26.65;51.98;99638.81;349498;28;6457;-76
2023/08/22 00:43:36;;;;;;;;;;;;;;;26.67;51.75;99630.59;350947;28;4683;-76
2023/08/22 00:43:47;;;;;;;;;;;;;;;26.66;51.97;99629.75;350582;28;4205;-76
2023/08/22 00:43:57;;;;;;;;;;;;;;;26.66;51.91;99635.13;349113;28;5195;-77
2023/08/22 00:44:07;;;;;;;;;;;;;;;26.66;52.20;99627.06;350379;28;880;-77
2023/08/22 00:44:18;;;;;;;;;;;;;;;26.66;51.99;99634.28;351402;28;5029;-77
2023/08/22 00:44:28;;;;;;;;;;;;;;;26.66;52.04;99640.50;348929;28;1243;-76
2023/08/22 00:44:39;;;;;;;;;;;;;;;26.65;51.89;99628.06;350450;28;1232;-76
2023/08/22 00:44:49;;;;;;;;;;;;;;;26.65;52.15;99633.44;351823;28;1250;-76
2023/08/22 00:44:59;;;;;;;;;;;;;;;26.66;51.98;99628.91;347614;28;1346;-76
2023/08/22 00:45:10;;;;;;;;;;;;;;;26.66;52.19;99628.91;346674;28;1281;-76
2023/08/22 00:45:20;;;;;;;;;;;;;;;26.65;52.13;99638.81;349048;28;822;-76
2023/08/22 00:45:30;;;;;;;;;;;;;;;26.65;51.91;99628.06;348898;28;1393;-76
2023/08/22 00:45:40;;;;;;;;;;;;;;;26.65;52.10;99636.13;348781;28;1386;-76
2023/08/22 00:45:51;;;;;;;;;;;;;;;26.66;52.07;99632.44;347635;28;1252;-76
2023/08/22 00:46:01;;;;;;;;;;;;;;;26.66;52.13;99632.44;347461;28;1242;-76
2023/08/22 00:46:11;;;;;;;;;;;;;;;26.66;52.02;99628.91;347447;28;1022;-76
2023/08/22 00:46:23;;;;;;;;;;;;;;;26.66;52.00;99632.44;348979;28;1324;-76
2023/08/22 00:46:33;;;;;;;;;;;;;;;26.66;52.34;99627.06;349092;28;922;-76
2023/08/22 00:46:43;;;;;;;;;;;;;;;26.66;52.15;99629.75;348680;28;1133;-76
2023/08/22 00:46:54;;;;;;;;;;;;;;;26.67;52.22;99627.91;344926;28;1192;-76
2023/08/22 00:47:04;;;;;;;;;;;;;;;26.67;52.25;99630.59;344772;28;927;-76
2023/08/22 00:47:16;;;;;;;;;;;;;;;26.66;52.45;99629.75;346365;28;888;-76
2023/08/22 00:47:26;;;;;;;;;;;;;;;26.66;52.17;99629.75;346214;28;1601;-76
2023/08/22 00:47:36;;;;;;;;;;;;;;;26.65;52.31;99633.44;346340;28;802;-76
2023/08/22 00:47:46;;;;;;;;;;;;;;;26.64;52.04;99633.59;346276;28;1071;-77
2023/08/22 00:47:57;;;;;;;;;;;;;;;26.65;52.18;99629.91;344952;28;1207;-76
2023/08/22 00:48:07;;;;;;;;;;;;;;;26.63;52.33;99630.06;344833;28;821;-76
2023/08/22 00:48:18;;;;;;;;;;;;;;;26.63;52.43;99624.72;346204;28;942;-76
2023/08/22 00:48:28;;;;;;;;;;;;;;;26.62;52.28;99631.09;344864;28;1633;-76
2023/08/22 00:48:38;;;;;;;;;;;;;;;26.62;52.27;99622.19;344900;28;1312;-76
2023/08/22 00:48:49;;;;;;;;;;;;;;;26.63;52.18;99634.59;340867;29;1564;-76
2023/08/22 00:48:59;;;;;;;;;;;;;;;26.62;52.35;99628.41;339658;29;1328;-76
2023/08/22 00:49:09;;;;;;;;;;;;;;;26.61;52.42;99626.72;340927;28;1651;-76
2023/08/22 00:49:19;;;;;;;;;;;;;;;26.60;52.31;99627.72;343572;28;1249;-76
2023/08/22 00:49:30;;;;;;;;;;;;;;;26.61;52.28;99631.25;343418;28;1210;-76
2023/08/22 00:49:40;;;;;;;;;;;;;;;26.62;52.20;99633.78;343274;28;1460;-76
2023/08/22 00:49:50;;;;;;;;;;;;;;;26.61;52.42;99634.78;336937;29;1223;-77
2023/08/22 00:50:01;;;;;;;;;;;;;;;26.62;52.30;99633.78;339504;28;1642;-77
2023/08/22 00:50:11;;;;;;;;;;;;;;;26.61;52.47;99628.56;336984;29;1305;-77
2023/08/22 00:50:21;;;;;;;;;;;;;;;26.59;52.68;99634.09;337324;29;2180;-77
2023/08/22 00:50:32;;;;;;;;;;;;;;;26.60;52.66;99633.09;339048;28;1415;-77
2023/08/22 00:50:42;;;;;;;;;;;;;;;26.59;52.64;99634.09;335682;29;1628;-77
2023/08/22 00:50:52;;;;;;;;;;;;;;;26.59;52.41;99633.25;333015;29;1354;-77
2023/08/22 00:51:04;;;;;;;;;;;;;;;26.60;52.36;99635.78;339284;29;1327;-77
2023/08/22 00:51:14;;;;;;;;;;;;;;;26.60;52.45;99630.41;341583;28;1737;-77
2023/08/22 00:51:25;;;;;;;;;;;;;;;26.60;52.65;99633.09;340857;29;1382;-77
2023/08/22 00:51:35;;;;;;;;;;;;;;;26.61;52.42;99633.94;342219;28;1190;-77
2023/08/22 00:51:46;;;;;;;;;;;;;;;26.60;52.62;99630.41;336178;29;1408;-77
2023/08/22 00:51:56;;;;;;;;;;;;;;;26.60;52.38;99635.78;335960;29;1686;-77
2023/08/22 00:52:09;;;;;;;;;;;;;;;26.61;52.46;99637.47;336898;29;970;-77
2023/08/22 00:52:19;;;;;;;;;;;;;;;26.62;52.69;99632.94;335102;29;2024;-76
2023/08/22 00:52:30;;;;;;;;;;;;;;;26.61;52.46;99632.09;336599;29;1412;-76
2023/08/22 00:52:40;;;;;;;;;;;;;;;26.61;52.48;99631.25;332730;29;2718;-76
2023/08/22 00:52:50;;;;;;;;;;;;;;;26.60;52.71;99635.78;330469;29;4650;-76
2023/08/22 00:53:00;;;;;;;;;;;;;;;26.59;52.71;99633.25;331418;29;4603;-76
2023/08/22 00:53:11;;;;;;;;;;;;;;;26.56;52.64;99631.75;329980;29;5251;-76
2023/08/22 00:53:21;;;;;;;;;;;;;;;26.57;52.87;99632.56;334430;29;791;-76
2023/08/22 00:53:32;;;;;;;;;;;;;;;26.57;52.63;99630.72;335321;29;830;-76
2023/08/22 00:53:42;;;;;;;;;;;;;;;26.56;52.74;99634.41;335553;29;1630;-76
2023/08/22 00:53:52;;;;;;;;;;;;;;;26.56;52.85;99631.75;335351;29;1793;-76
2023/08/22 00:54:03;;;;;;;;;;;;;;;26.56;52.83;99634.41;333392;29;2018;-76
2023/08/22 00:54:13;;;;;;;;;;;;;;;26.56;52.91;99634.41;332598;29;1964;-76
2023/08/22 00:54:23;;;;;;;;;;;;;;;26.57;52.96;99640.63;329947;29;2301;-76
2023/08/22 00:54:33;;;;;;;;;;;;;;;26.56;52.64;99637.09;321035;30;1946;-76
2023/08/22 00:54:44;;;;;;;;;;;;;;;26.55;52.93;99632.75;322017;30;2480;-76
2023/08/22 00:54:54;;;;;;;;;;;;;;;26.56;52.71;99634.41;321983;30;2413;-76
2023/08/22 00:55:04;;;;;;;;;;;;;;;26.57;52.95;99635.25;322081;30;908;-76
2023/08/22 00:55:15;;;;;;;;;;;;;;;26.57;52.88;99628.03;323455;30;2776;-76
2023/08/22 00:55:25;;;;;;;;;;;;;;;26.56;52.73;99629.06;323682;30;1913;-76
2023/08/22 00:55:35;;;;;;;;;;;;;;;26.56;52.95;99639.78;324515;30;1478;-76
2023/08/22 00:55:45;;;;;;;;;;;;;;;26.55;52.87;99638.09;326618;30;1462;-76
2023/08/22 00:55:56;;;;;;;;;;;;;;;26.55;52.70;99627.38;325073;30;2261;-78
2023/08/22 00:56:06;;;;;;;;;;;;;;;26.49;53.18;99634.22;321848;30;1959;-75
2023/08/22 00:56:16;;;;;;;;;;;;;;;26.44;53.23;99636.56;324437;30;2421;-75
2023/08/22 00:56:26;;;;;;;;;;;;;;;26.43;53.22;99639.41;323656;30;2518;-75
2023/08/22 00:56:36;;;;;;;;;;;;;;;26.42;53.22;99635.09;325795;30;844;-75
2023/08/22 00:56:47;;;;;;;;;;;;;;;26.43;53.02;99636.72;324944;30;3218;-76
2023/08/22 00:56:57;;;;;;;;;;;;;;;26.42;53.30;99638.59;323613;30;2830;-76
2023/08/22 00:57:08;;;;;;;;;;;;;;;26.43;53.13;99634.03;323305;30;1182;-76
2023/08/22 00:57:19;;;;;;;;;;;;;;;26.44;52.93;99635.72;317597;31;1276;-76
2023/08/22 00:57:29;;;;;;;;;;;;;;;26.45;53.00;99634.72;313598;31;3108;-76
2023/08/22 00:57:39;;;;;;;;;;;;;;;26.47;52.96;99635.41;310677;31;2550;-76
2023/08/22 00:57:49;;;;;;;;;;;;;;;26.47;53.01;99635.41;310808;31;1548;-76
2023/08/22 00:57:59;;;;;;;;;;;;;;;26.48;53.02;99634.41;313569;31;2486;-76
2023/08/22 00:58:10;;;;;;;;;;;;;;;26.50;52.90;99635.06;313357;31;2617;-75
2023/08/22 00:58:21;;;;;;;;;;;;;;;26.50;52.85;99637.75;314157;31;844;-75
2023/08/22 00:58:31;;;;;;;;;;;;;;;26.51;52.98;99642.13;312195;31;3261;-76
2023/08/22 00:58:41;;;;;;;;;;;;;;;26.50;52.90;99640.44;309865;31;4097;-75
2023/08/22 00:58:51;;;;;;;;;;;;;;;26.49;52.84;99636.91;305352;32;1282;-75